createdAt,value
2022-11-24T00:01:25.371Z,9.38
2022-11-24T00:03:58.288Z,8.88
2022-11-24T00:06:26.187Z,7.53
2022-11-24T00:08:53.986Z,10.13
2022-11-24T00:11:29.751Z,6.60
2022-11-24T00:13:58.322Z,5.75
2022-11-24T00:16:31.116Z,8.25
2022-11-24T00:19:00.416Z,7.72
2022-11-24T00:21:31.979Z,8.38
2022-11-24T00:24:00.458Z,7.78
2022-11-24T00:26:30.669Z,13.93
2022-11-24T00:29:01.863Z,6.43
2022-11-24T00:31:35.348Z,10.05
2022-11-24T00:34:05.430Z,7.60
2022-11-24T00:36:35.979Z,7.05
2022-11-24T00:39:06.446Z,6.45
2022-11-24T00:41:34.046Z,4.70
2022-11-24T00:44:01.453Z,4.13
2022-11-24T00:46:28.966Z,5.72
2022-11-24T00:48:57.795Z,5.13
2022-11-24T00:51:28.818Z,5.30
2022-11-24T00:53:57.914Z,5.13
2022-11-24T00:58:53.999Z,5.95
2022-11-24T01:01:24.466Z,4.97
2022-11-24T01:03:52.381Z,6.03
2022-11-24T01:06:22.000Z,4.90
2022-11-24T01:08:49.486Z,3.88
2022-11-24T01:11:28.491Z,5.28
2022-11-24T01:13:58.657Z,4.25
2022-11-24T01:16:33.843Z,4.35
2022-11-24T01:19:01.745Z,4.72
2022-11-24T01:21:30.029Z,5.15
2022-11-24T01:23:57.761Z,3.75
2022-11-24T01:26:25.358Z,5.82
2022-11-24T01:28:57.780Z,5.68
2022-11-24T01:31:27.297Z,6.85
2022-11-24T01:33:55.666Z,4.07
2022-11-24T01:36:23.146Z,6.78
2022-11-24T01:38:50.742Z,7.20
2022-11-24T01:41:20.831Z,7.32
2022-11-24T01:43:51.163Z,8.18
2022-11-24T01:47:15.560Z,8.63
2022-11-24T01:49:43.106Z,7.75
2022-11-24T01:52:29.312Z,9.07
2022-11-24T01:55:04.079Z,9.35
2022-11-24T01:57:42.354Z,8.73
2022-11-24T02:00:13.241Z,7.75
2022-11-24T02:02:42.208Z,22.27
2022-11-24T02:05:33.458Z,11.18
2022-11-24T02:08:02.145Z,12.68
2022-11-24T02:10:29.984Z,12.30
2022-11-24T02:13:03.771Z,13.43
2022-11-24T02:15:33.553Z,13.93
2022-11-24T02:18:00.648Z,16.20
2022-11-24T02:20:27.975Z,15.73
2022-11-24T02:23:03.827Z,14.10
2022-11-24T02:25:36.923Z,14.63
2022-11-24T02:28:10.620Z,15.55
2022-11-24T02:30:41.172Z,16.73
2022-11-24T02:33:12.080Z,14.50
2022-11-24T02:35:40.800Z,18.98
2022-11-24T02:38:12.601Z,18.13
2022-11-24T02:40:43.634Z,15.80
2022-11-24T02:43:22.344Z,18.25
2022-11-24T02:45:51.490Z,17.98
2022-11-24T02:48:18.765Z,18.67
2022-11-24T02:50:46.195Z,20.63
2022-11-24T02:53:13.478Z,20.02
2022-11-24T02:55:40.903Z,20.92
2022-11-24T02:58:07.937Z,20.58
2022-11-24T03:00:36.558Z,19.02
2022-11-24T03:03:04.291Z,19.23
2022-11-24T03:05:33.560Z,23.58
2022-11-24T03:08:00.555Z,21.42
2022-11-24T03:10:29.303Z,21.33
2022-11-24T03:12:56.716Z,16.67
2022-11-24T03:15:26.413Z,12.88
2022-11-24T03:17:56.099Z,13.80
2022-11-24T03:20:23.989Z,17.42
2022-11-24T03:22:53.503Z,16.50
2022-11-24T03:25:21.179Z,15.02
2022-11-24T03:27:48.220Z,14.60
2022-11-24T03:30:17.253Z,15.48
2022-11-24T03:32:44.346Z,20.15
2022-11-24T03:35:13.427Z,16.48
2022-11-24T03:37:40.326Z,17.90
2022-11-24T03:40:08.475Z,19.17
2022-11-24T03:42:35.676Z,17.70
2022-11-24T03:45:29.923Z,19.25
2022-11-24T03:47:52.399Z,19.75
2022-11-24T03:50:19.756Z,18.33
2022-11-24T03:52:46.668Z,21.17
2022-11-24T03:55:14.216Z,20.05
2022-11-24T03:57:42.673Z,19.60
2022-11-24T04:00:11.981Z,18.13
2022-11-24T04:02:42.549Z,19.92
2022-11-24T04:05:13.209Z,18.13
2022-11-24T04:07:40.301Z,20.85
2022-11-24T04:10:09.040Z,20.58
2022-11-24T04:12:45.228Z,20.10
2022-11-24T04:15:21.177Z,18.60
2022-11-24T04:17:49.440Z,19.02
2022-11-24T04:20:17.470Z,16.17
2022-11-24T04:22:44.657Z,18.98
2022-11-24T04:25:17.561Z,19.05
2022-11-24T04:27:46.044Z,18.90
2022-11-24T04:30:13.888Z,14.27
2022-11-24T04:32:40.901Z,19.98
2022-11-24T04:35:08.803Z,9.95
2022-11-24T04:37:35.870Z,18.27
2022-11-24T04:40:04.401Z,10.60
2022-11-24T04:42:31.528Z,19.30
2022-11-24T04:44:59.005Z,22.80
2022-11-24T04:47:26.634Z,24.15
2022-11-24T04:49:54.959Z,23.58
2022-11-24T04:52:23.324Z,21.15
2022-11-24T04:54:51.480Z,22.85
2022-11-24T04:57:21.953Z,18.15
2022-11-24T04:59:50.069Z,23.77
2022-11-24T05:02:17.489Z,27.33
2022-11-24T05:04:45.653Z,25.58
2022-11-24T05:07:20.701Z,29.50
2022-11-24T05:10:07.560Z,27.20
2022-11-24T05:12:58.640Z,27.45
2022-11-24T05:15:26.638Z,25.77
2022-11-24T05:17:57.833Z,29.08
2022-11-24T05:20:26.257Z,29.85
2022-11-24T05:22:53.462Z,33.47
2022-11-24T05:25:21.286Z,31.20
2022-11-24T05:27:48.237Z,34.35
2022-11-24T05:30:16.742Z,28.15
2022-11-24T05:32:43.909Z,31.38
2022-11-24T05:35:12.179Z,34.35
2022-11-24T05:37:39.838Z,39.95
2022-11-24T05:40:22.423Z,32.72
2022-11-24T05:42:53.246Z,33.63
2022-11-24T05:45:22.273Z,33.63
2022-11-24T05:47:51.879Z,39.25
2022-11-24T05:53:33.398Z,35.72
2022-11-24T05:56:09.388Z,37.40
2022-11-24T05:58:36.418Z,31.05
2022-11-24T06:01:06.855Z,30.00
2022-11-24T06:03:59.668Z,32.22
2022-11-24T06:06:30.813Z,35.55
2022-11-24T06:08:58.981Z,36.08
2022-11-24T06:11:49.737Z,37.05
2022-11-24T06:14:16.676Z,23.08
2022-11-24T06:16:44.135Z,26.95
2022-11-24T06:19:11.779Z,24.50
2022-11-24T06:21:39.236Z,28.75
2022-11-24T06:24:06.619Z,29.35
2022-11-24T06:26:33.983Z,28.13
2022-11-24T06:29:01.432Z,27.98
2022-11-24T06:31:29.878Z,16.70
2022-11-24T06:34:11.850Z,24.20
2022-11-24T06:36:40.790Z,23.38
2022-11-24T06:39:08.439Z,24.35
2022-11-24T06:41:38.783Z,26.13
2022-11-24T06:44:19.673Z,20.20
2022-11-24T06:46:47.435Z,27.52
2022-11-24T06:49:14.522Z,31.40
2022-11-24T06:51:45.094Z,31.85
2022-11-24T06:57:03.214Z,21.73
2022-11-24T06:59:32.551Z,38.95
2022-11-24T07:02:02.141Z,31.98
2022-11-24T07:04:32.666Z,25.52
2022-11-24T07:07:15.321Z,28.23
2022-11-24T07:09:45.004Z,30.13
2022-11-24T07:14:39.113Z,36.88
2022-11-24T07:17:06.899Z,25.15
2022-11-24T07:19:34.365Z,42.15
2022-11-24T07:22:01.514Z,33.53
2022-11-24T07:24:28.899Z,29.15
2022-11-24T07:26:56.271Z,32.67
2022-11-24T07:29:23.653Z,37.55
2022-11-24T07:31:50.722Z,29.73
2022-11-24T07:34:18.034Z,28.85
2022-11-24T07:36:45.267Z,25.65
2022-11-24T07:39:12.690Z,34.92
2022-11-24T07:41:39.815Z,27.52
2022-11-24T07:44:07.353Z,18.85
2022-11-24T07:46:34.395Z,18.35
2022-11-24T07:49:01.823Z,31.52
2022-11-24T07:51:28.831Z,29.75
2022-11-24T07:54:07.305Z,20.05
2022-11-24T07:56:35.653Z,28.02
2022-11-24T07:59:04.406Z,32.47
2022-11-24T08:01:34.352Z,29.48
2022-11-24T08:04:03.776Z,30.05
2022-11-24T08:06:40.849Z,12.98
2022-11-24T08:09:15.126Z,12.55
2022-11-24T08:11:42.333Z,22.13
2022-11-24T08:14:09.657Z,27.50
2022-11-24T08:16:36.751Z,16.88
2022-11-24T08:19:04.231Z,24.13
2022-11-24T08:21:52.870Z,27.90
2022-11-24T08:27:31.509Z,18.65
2022-11-24T08:29:59.756Z,24.67
2022-11-24T08:32:27.377Z,18.73
2022-11-24T08:34:59.569Z,14.90
2022-11-24T08:37:32.365Z,15.32
2022-11-24T08:40:03.251Z,13.30
2022-11-24T08:42:30.831Z,10.40
2022-11-24T08:44:59.196Z,14.32
2022-11-24T08:47:26.657Z,14.35
2022-11-24T08:49:53.746Z,18.73
2022-11-24T08:52:29.231Z,13.88
2022-11-24T08:55:17.299Z,23.13
2022-11-24T08:57:44.761Z,17.00
2022-11-24T09:00:14.200Z,15.75
2022-11-24T09:02:43.031Z,12.45
2022-11-24T09:05:43.646Z,16.83
2022-11-24T09:08:01.146Z,15.60
2022-11-24T09:10:28.808Z,18.05
2022-11-24T09:12:57.795Z,22.55
2022-11-24T09:18:25.243Z,23.58
2022-11-24T09:20:58.627Z,25.88
2022-11-24T09:23:32.419Z,11.23
2022-11-24T09:26:10.795Z,12.45
2022-11-24T09:28:38.207Z,13.85
2022-11-24T09:31:49.682Z,13.65
2022-11-24T09:34:20.105Z,23.88
2022-11-24T09:36:49.584Z,24.67
2022-11-24T09:42:14.529Z,19.05
2022-11-24T09:44:55.510Z,18.73
2022-11-24T09:47:40.874Z,23.05
2022-11-24T09:50:12.409Z,15.23
2022-11-24T09:53:08.285Z,15.63
2022-11-24T09:55:53.938Z,14.30
2022-11-24T09:58:33.063Z,17.73
2022-11-24T10:01:00.614Z,13.25
2022-11-24T10:03:43.769Z,10.98
2022-11-24T10:06:31.912Z,11.95
2022-11-24T10:09:21.249Z,9.05
2022-11-24T10:12:16.268Z,9.02
2022-11-24T10:15:00.419Z,10.27
2022-11-24T10:17:49.957Z,13.32
2022-11-24T10:21:00.596Z,15.73
2022-11-24T10:24:04.827Z,10.82
2022-11-24T10:26:47.041Z,11.30
2022-11-24T10:29:30.597Z,12.98
2022-11-24T10:35:28.410Z,10.98
2022-11-24T10:38:25.414Z,12.10
2022-11-24T10:41:06.193Z,17.75
2022-11-24T10:46:29.171Z,15.45
2022-11-24T10:49:04.626Z,16.50
2022-11-24T10:51:32.969Z,16.75
2022-11-24T10:54:18.817Z,14.77
2022-11-24T10:56:51.880Z,17.08
2022-11-24T10:59:43.615Z,13.40
2022-11-24T11:02:32.536Z,8.80
2022-11-24T11:05:28.803Z,10.00
2022-11-24T11:08:14.416Z,12.02
2022-11-24T11:10:43.763Z,7.25
2022-11-24T11:16:09.937Z,10.45
2022-11-24T11:18:42.563Z,7.60
2022-11-24T11:21:34.476Z,6.68
2022-11-24T11:24:13.171Z,14.05
2022-11-24T11:26:42.529Z,10.00
2022-11-24T11:34:55.138Z,10.88
2022-11-24T11:37:30.061Z,11.57
2022-11-24T11:40:04.136Z,14.73
2022-11-24T11:43:03.210Z,10.63
2022-11-24T11:45:49.559Z,15.05
2022-11-24T11:48:42.402Z,12.88
2022-11-24T11:51:25.896Z,13.15
2022-11-24T11:54:27.770Z,12.50
2022-11-24T11:57:12.127Z,7.35
2022-11-24T11:59:48.734Z,8.10
2022-11-24T12:02:53.840Z,7.60
2022-11-24T12:05:31.755Z,11.77
2022-11-24T12:08:28.864Z,4.72
2022-11-24T12:11:15.549Z,6.25
2022-11-24T12:14:08.420Z,8.82
2022-11-24T12:17:03.283Z,8.40
2022-11-24T12:19:46.826Z,7.15
2022-11-24T12:22:28.155Z,7.40
2022-11-24T12:25:14.734Z,7.03
2022-11-24T12:28:32.261Z,6.88
2022-11-24T12:31:08.193Z,7.07
2022-11-24T12:34:01.474Z,7.30
2022-11-24T12:36:56.391Z,3.67
2022-11-24T12:39:26.833Z,4.00
2022-11-24T12:42:22.262Z,8.05
2022-11-24T12:45:06.377Z,18.58
2022-11-24T12:47:51.818Z,6.68
2022-11-24T12:50:23.858Z,7.65
2022-11-24T12:53:04.461Z,6.13
2022-11-24T12:55:34.151Z,5.53
2022-11-24T12:58:17.367Z,6.05
2022-11-24T13:01:22.487Z,13.88
2022-11-24T13:04:07.237Z,7.13
2022-11-24T13:06:44.405Z,6.55
2022-11-24T13:09:20.589Z,7.88
2022-11-24T13:14:55.520Z,5.72
2022-11-24T13:17:37.128Z,5.50
2022-11-24T13:20:38.453Z,7.97
2022-11-24T13:26:38.888Z,8.25
2022-11-24T13:29:30.860Z,5.95
2022-11-24T13:32:01.468Z,10.25
2022-11-24T13:34:50.362Z,8.82
2022-11-24T13:37:32.056Z,10.43
2022-11-24T13:40:23.488Z,7.55
2022-11-24T13:42:56.436Z,8.88
2022-11-24T13:45:59.241Z,9.90
2022-11-24T13:48:29.360Z,7.85
2022-11-24T13:51:02.034Z,7.88
2022-11-24T13:56:18.631Z,11.52
2022-11-24T13:59:04.518Z,11.82
2022-11-24T14:01:36.995Z,14.07
2022-11-24T14:04:35.863Z,11.90
2022-11-24T14:07:12.526Z,10.57
2022-11-24T14:09:45.822Z,10.10
2022-11-24T14:12:18.084Z,9.15
2022-11-24T14:14:52.787Z,14.20
2022-11-24T14:17:30.189Z,10.18
2022-11-24T14:20:24.277Z,13.70
2022-11-24T14:22:56.446Z,14.18
2022-11-24T14:25:32.327Z,13.70
2022-11-24T14:28:00.676Z,10.88
2022-11-24T14:30:27.923Z,12.75
2022-11-24T14:33:11.384Z,14.45
2022-11-24T14:35:51.462Z,13.93
2022-11-24T14:38:19.144Z,10.63
2022-11-24T14:40:55.685Z,8.88
2022-11-24T14:46:21.091Z,11.50
2022-11-24T14:49:02.233Z,11.38
2022-11-24T14:51:45.013Z,10.98
2022-11-24T14:54:19.829Z,13.95
2022-11-24T14:57:22.851Z,9.60
2022-11-24T15:00:22.709Z,10.63
2022-11-24T15:02:56.302Z,11.63
2022-11-24T15:05:26.005Z,9.15
2022-11-24T15:08:14.052Z,8.52
2022-11-24T15:10:51.508Z,9.68
2022-11-24T15:13:24.693Z,9.75
2022-11-24T15:16:03.362Z,10.80
2022-11-24T15:18:37.841Z,10.98
2022-11-24T15:21:05.584Z,13.05
2022-11-24T15:23:35.194Z,9.55
2022-11-24T15:26:05.839Z,10.25
2022-11-24T15:28:33.525Z,11.25
2022-11-24T15:31:03.957Z,12.07
2022-11-24T15:33:40.240Z,16.38
2022-11-24T15:36:14.553Z,11.23
2022-11-24T15:38:46.589Z,13.80
2022-11-24T15:41:22.776Z,10.80
2022-11-24T15:46:24.978Z,10.85
2022-11-24T15:48:54.885Z,14.95
2022-11-24T15:51:26.778Z,14.30
2022-11-24T15:54:01.162Z,13.50
2022-11-24T15:56:46.228Z,11.85
2022-11-24T15:59:20.732Z,16.08
2022-11-24T16:01:50.076Z,14.77
2022-11-24T16:04:17.625Z,14.73
2022-11-24T16:06:44.839Z,14.77
2022-11-24T16:09:17.318Z,14.50
2022-11-24T16:11:44.629Z,17.40
2022-11-24T16:14:12.722Z,16.75
2022-11-24T16:16:40.939Z,24.05
2022-11-24T16:19:11.472Z,11.90
2022-11-24T16:21:40.756Z,12.85
2022-11-24T16:24:08.884Z,18.33
2022-11-24T16:26:35.938Z,15.07
2022-11-24T16:29:05.554Z,15.63
2022-11-24T16:31:33.087Z,11.75
2022-11-24T16:34:00.402Z,14.02
2022-11-24T16:36:28.930Z,16.45
2022-11-24T16:38:59.740Z,15.80
2022-11-24T16:41:28.767Z,12.43
2022-11-24T16:43:56.574Z,14.68
2022-11-24T16:46:25.151Z,14.98
2022-11-24T16:49:08.306Z,14.02
2022-11-24T16:51:37.426Z,14.88
2022-11-24T16:54:04.959Z,17.02
2022-11-24T16:56:34.489Z,10.85
2022-11-24T16:59:10.625Z,14.57
2022-11-24T17:01:43.168Z,11.85
2022-11-24T17:04:33.558Z,14.38
2022-11-24T17:07:02.938Z,12.02
2022-11-24T17:09:30.652Z,14.93
2022-11-24T17:11:57.923Z,12.05
2022-11-24T17:14:26.051Z,14.20
2022-11-24T17:16:53.328Z,15.60
2022-11-24T17:19:20.973Z,16.95
2022-11-24T17:21:48.273Z,17.25
2022-11-24T17:24:19.586Z,10.82
2022-11-24T17:26:51.577Z,15.40
2022-11-24T17:29:19.378Z,15.52
2022-11-24T17:31:46.783Z,17.58
2022-11-24T17:34:20.137Z,18.45
2022-11-24T17:36:47.386Z,19.80
2022-11-24T17:39:19.136Z,18.40
2022-11-24T17:41:53.382Z,16.08
2022-11-24T17:48:07.906Z,19.80
2022-11-24T17:50:35.039Z,15.30
2022-11-24T17:53:08.832Z,17.98
2022-11-24T17:55:36.052Z,15.48
2022-11-24T17:58:05.677Z,14.52
2022-11-24T18:00:32.766Z,14.85
2022-11-24T18:03:01.102Z,15.07
2022-11-24T18:05:28.237Z,18.35
2022-11-24T18:07:58.104Z,16.58
2022-11-24T18:10:25.301Z,17.88
2022-11-24T18:12:52.758Z,13.52
2022-11-24T18:15:19.797Z,14.80
2022-11-24T18:17:47.267Z,16.13
2022-11-24T18:20:14.398Z,14.95
2022-11-24T18:23:11.667Z,13.90
2022-11-24T18:28:32.644Z,12.82
2022-11-24T18:31:05.658Z,16.63
2022-11-24T18:33:40.354Z,16.80
2022-11-24T18:36:12.001Z,18.48
2022-11-24T18:38:40.151Z,16.90
2022-11-24T18:41:09.289Z,15.68
2022-11-24T18:43:43.265Z,17.88
2022-11-24T18:46:16.123Z,16.45
2022-11-24T18:48:45.559Z,13.73
2022-11-24T18:51:15.890Z,17.30
2022-11-24T18:53:46.143Z,16.50
2022-11-24T18:58:42.632Z,12.18
2022-11-24T19:01:16.057Z,13.40
2022-11-24T19:03:52.958Z,13.85
2022-11-24T19:06:22.057Z,14.10
2022-11-24T19:08:53.491Z,16.33
2022-11-24T19:11:34.071Z,18.65
2022-11-24T19:14:05.886Z,20.85
2022-11-24T19:16:34.004Z,16.00
2022-11-24T19:19:02.689Z,15.80
2022-11-24T19:21:31.634Z,17.48
2022-11-24T19:24:04.534Z,16.92
2022-11-24T19:26:35.326Z,15.52
2022-11-24T19:29:03.326Z,16.92
2022-11-24T19:31:30.920Z,14.95
2022-11-24T19:34:07.426Z,17.42
2022-11-24T19:36:36.078Z,13.32
2022-11-24T19:39:10.703Z,11.10
2022-11-24T19:41:39.186Z,8.63
2022-11-24T19:44:09.284Z,8.30
2022-11-24T19:46:38.833Z,8.93
2022-11-24T19:49:08.287Z,10.48
2022-11-24T19:51:50.232Z,10.95
2022-11-24T19:54:18.410Z,8.68
2022-11-24T19:56:46.332Z,8.23
2022-11-24T19:59:17.263Z,8.00
2022-11-24T20:01:44.636Z,7.03
2022-11-24T20:04:15.166Z,10.30
2022-11-24T20:06:47.251Z,9.20
2022-11-24T20:09:17.036Z,8.38
2022-11-24T20:11:44.674Z,7.00
2022-11-24T20:14:13.667Z,6.53
2022-11-24T20:16:41.589Z,6.10
2022-11-24T20:19:15.728Z,6.28
2022-11-24T20:22:03.318Z,7.18
2022-11-24T20:24:33.812Z,21.05
2022-11-24T20:27:01.390Z,7.13
2022-11-24T20:29:29.307Z,25.52
2022-11-24T20:31:56.798Z,5.65
2022-11-24T20:34:26.595Z,6.75
2022-11-24T20:36:55.315Z,7.80
2022-11-24T20:39:29.067Z,7.55
2022-11-24T20:41:56.636Z,6.55
2022-11-24T20:44:27.807Z,7.05
2022-11-24T20:46:56.970Z,8.00
2022-11-24T20:52:23.675Z,8.27
2022-11-24T20:57:33.574Z,8.10
2022-11-24T21:00:16.902Z,8.55
2022-11-24T21:02:44.794Z,7.20
2022-11-24T21:05:12.091Z,6.25
2022-11-24T21:07:39.609Z,7.32
2022-11-24T21:10:07.671Z,5.43
2022-11-24T21:12:35.082Z,7.85
2022-11-24T21:15:02.164Z,9.80
2022-11-24T21:17:31.926Z,9.07
2022-11-24T21:22:28.927Z,6.88
2022-11-24T21:24:55.983Z,4.82
2022-11-24T21:27:23.634Z,7.60
2022-11-24T21:29:50.739Z,8.48
2022-11-24T21:32:18.140Z,9.50
2022-11-24T21:34:45.400Z,7.78
2022-11-24T21:37:12.752Z,9.50
2022-11-24T21:39:43.717Z,7.15
2022-11-24T21:42:11.248Z,8.43
2022-11-24T21:44:38.298Z,9.07
2022-11-24T21:47:05.676Z,7.03
2022-11-24T21:49:32.715Z,7.47
2022-11-24T21:52:00.091Z,7.25
2022-11-24T21:54:27.191Z,6.90
2022-11-24T21:56:54.627Z,6.40
2022-11-24T21:59:22.508Z,9.13
2022-11-24T22:01:50.082Z,7.88
2022-11-24T22:04:21.590Z,8.43
2022-11-24T22:06:49.122Z,8.50
2022-11-24T22:09:18.309Z,10.65
2022-11-24T22:11:46.789Z,8.88
2022-11-24T22:14:14.032Z,6.90
2022-11-24T22:16:51.950Z,6.70
2022-11-24T22:19:21.884Z,7.78
2022-11-24T22:21:50.097Z,6.63
2022-11-24T22:24:17.036Z,5.03
2022-11-24T22:26:44.266Z,5.18
2022-11-24T22:29:11.203Z,5.45
2022-11-24T22:31:38.776Z,8.30
2022-11-24T22:34:06.028Z,7.85
2022-11-24T22:36:36.788Z,5.38
2022-11-24T22:39:05.810Z,7.70
2022-11-24T22:41:35.237Z,7.88
2022-11-24T22:44:02.616Z,6.80
2022-11-24T22:46:31.189Z,5.03
2022-11-24T22:48:59.752Z,5.10
2022-11-24T22:51:35.405Z,5.32
2022-11-24T22:54:04.699Z,5.50
2022-11-24T22:56:37.910Z,5.90
2022-11-24T22:59:05.232Z,5.05
2022-11-24T23:01:36.605Z,6.18
2022-11-24T23:04:08.292Z,4.82
2022-11-24T23:06:35.948Z,4.28
2022-11-24T23:09:05.164Z,4.32
2022-11-24T23:11:38.498Z,6.15
2022-11-24T23:14:13.753Z,5.25
2022-11-24T23:16:41.832Z,8.70
2022-11-24T23:19:09.586Z,10.02
2022-11-24T23:21:40.678Z,4.57
2022-11-24T23:24:08.945Z,5.07
2022-11-24T23:26:38.669Z,3.75
2022-11-24T23:29:06.703Z,4.43
2022-11-24T23:31:34.070Z,5.93
2022-11-24T23:34:04.721Z,2.97
2022-11-24T23:36:33.456Z,4.32
2022-11-24T23:39:11.238Z,4.30
2022-11-24T23:41:38.971Z,5.70
2022-11-24T23:44:06.432Z,4.03
2022-11-24T23:46:34.020Z,3.80
2022-11-24T23:49:00.981Z,4.70
2022-11-24T23:51:31.968Z,2.78
2022-11-24T23:54:00.771Z,4.90
2022-11-24T23:56:33.724Z,3.67
2022-11-24T23:59:02.390Z,4.68
